Suederoog — ZDHC8 — position and weather

sailwx.info

Track history (hours):
 
Tides and Currents Weather Stations Pressure Air Temp Water Temp Dewpoint Dewpoint Depression Visibility Wind Speed Wind Dir Waves Ship Positions

Suederoog

Last reported at 2014-Oct-24 09:05 UTC. Time now 2014-Oct-24 10:24 UTC.
Position N 59°45' E 024°41'.

Length 161 m; draft 10.7 m.

Type: Ship (hazmat cat A). MMSI: 236300000.

Date/timePositionNaut miles runAvg speedWind from/ knotsBaromVisibWave heightAir tempDewpointWater temp
2014-Oct-24 09:05N 59°45' E 024°41'810.8
2014-Oct-24 08:19N 59°43' E 024°25'1310.9
2014-Oct-24 07:06N 59°39' E 024°00'610.9
2014-Oct-24 06:33N 59°37' E 023°49'1110.9
2014-Oct-24 05:33N 59°34' E 023°29'30914.5
2014-Oct-23 08:16N 55°59' E 016°33'6016.0
2014-Oct-23 04:33N 55°30' E 015°00'1616.0
2014-Oct-23 03:33N 55°22' E 014°36'1616.1
2014-Oct-23 02:34N 55°09' E 014°19'1615.6
2014-Oct-23 01:33N 54°60' E 013°58'1616.1
2014-Oct-23 00:32N 54°54' E 013°31'7123.9
2014-Oct-22 21:33N 54°28' E 011°37'1514.9
2014-Oct-22 20:33N 54°25' E 012°02'13312.1
2014-Oct-22 09:33N 56°37' E 011°42'1514.6
2014-Oct-22 08:33N 56°51' E 011°48'1615.6
2014-Oct-22 07:34N 57°06' E 011°38'1515.3
2014-Oct-22 06:34N 57°20' E 011°28'1514.8
2014-Oct-22 05:34N 57°33' E 011°13'1515.4
2014-Oct-22 04:34N 57°43' E 010°52'1515.3
2014-Oct-22 03:33N 57°47' E 010°24'16615.1
2014-Oct-21 16:33N 55°39' E 007°10'1616.1
2014-Oct-21 15:33N 55°23' E 007°05'1615.7
2014-Oct-21 14:33N 55°07' E 007°05'1615.6
2014-Oct-21 13:33N 54°52' E 007°06'3815.8
2014-Oct-21 11:10N 54°16' E 007°28'1215.9
2014-Oct-21 10:25N 54°08' E 007°43'1415.9
2014-Oct-21 09:33N 54°02' E 008°03'1313.4
2014-Oct-21 08:33N 53°59' E 008°26'1312.6
2014-Oct-21 07:33N 53°52' E 008°44'1413.6
2014-Oct-21 06:33N 53°53' E 009°07'1211.3
2014-Oct-21 05:33N 53°47' E 009°23'1414.0
2014-Oct-21 04:32N 53°35' E 009°37'1010.1
2014-Oct-21 03:33N 53°33' E 009°53'1 1.4
2014-Oct-21 02:31N 53°32' E 009°55'0 0.0
2014-Oct-21 01:29N 53°32' E 009°55'0 0.0
2014-Oct-21 00:32N 53°32' E 009°55'0 0.0
2014-Oct-20 23:32N 53°32' E 009°55'0 0.0
2014-Oct-20 22:29N 53°32' E 009°55'0 0.0
2014-Oct-20 21:31N 53°32' E 009°55'0 0.0
2014-Oct-20 20:31N 53°32' E 009°55'0 0.0
2014-Oct-20 19:33N 53°32' E 009°55'0 0.0
2014-Oct-20 18:33N 53°32' E 009°55'0 0.0
2014-Oct-20 17:32N 53°32' E 009°55'0 0.0
2014-Oct-20 16:29N 53°32' E 009°55'0 0.0
2014-Oct-20 15:33N 53°32' E 009°55'0 0.0
2014-Oct-20 14:33N 53°32' E 009°55'0 0.0
2014-Oct-20 13:34N 53°32' E 009°55'0 0.0
2014-Oct-20 12:32N 53°32' E 009°55'0 0.0
2014-Oct-20 11:33N 53°32' E 009°55'1 1.3
2014-Oct-20 10:32N 53°32' E 009°57'0 0.0
2014-Oct-20 09:32N 53°32' E 009°57'0 0.0
2014-Oct-20 08:32N 53°32' E 009°57'0 0.0
2014-Oct-20 07:32N 53°32' E 009°57'0 0.0
2014-Oct-20 06:30N 53°32' E 009°57'0 0.0
2014-Oct-20 05:33N 53°32' E 009°57'0 0.0
2014-Oct-20 04:33N 53°32' E 009°57'0 0.0
2014-Oct-20 03:33N 53°32' E 009°57'0 0.0
2014-Oct-20 02:33N 53°32' E 009°57'0 0.0
2014-Oct-20 01:33N 53°32' E 009°57'0 0.0
2014-Oct-20 00:33N 53°32' E 009°57'0 0.0
2014-Oct-19 23:33N 53°32' E 009°57'0 0.0
2014-Oct-19 22:31N 53°32' E 009°57'0 0.0
2014-Oct-19 21:33N 53°32' E 009°57'0 0.0
2014-Oct-19 20:33N 53°32' E 009°57'0 0.0
2014-Oct-19 19:32N 53°32' E 009°57'0 0.4
2014-Oct-19 18:33N 53°32' E 009°57'7 7.2
2014-Oct-19 17:33N 53°34' E 009°45'1313.4
2014-Oct-19 16:33N 53°43' E 009°28'1413.5
2014-Oct-19 15:33N 53°53' E 009°13'2 2.4
2014-Oct-19 14:33N 53°54' E 009°09'4 4.1
2014-Oct-19 13:33N 53°57' E 009°14'6 6.0
2014-Oct-19 12:31N 54°02' E 009°18'7 6.6
2014-Oct-19 11:32N 54°09' E 009°21'6 5.7
2014-Oct-19 10:28N 54°11' E 009°30'3 3.6
2014-Oct-19 09:32N 54°13' E 009°35'3 3.2
2014-Oct-19 08:31N 54°16' E 009°37'4 3.7
2014-Oct-19 07:33N 54°18' E 009°42'4 3.7
2014-Oct-19 06:33N 54°21' E 009°46'4 4.4
2014-Oct-19 05:33N 54°21' E 009°54'5 5.2
2014-Oct-19 04:33N 54°22' E 010°02'1 0.8
2014-Oct-19 03:33N 54°22' E 010°04'3 2.6
2014-Oct-19 02:30N 54°22' E 010°09'1 1.5
2014-Oct-19 01:33N 54°23' E 010°11'0 0.4
2014-Oct-19 00:33N 54°23' E 010°11'4 4.2
2014-Oct-18 23:33N 54°27' E 010°14'8 7.6
2014-Oct-18 22:33N 54°32' E 010°24'10 9.9
2014-Oct-18 21:33N 54°35' E 010°40'3710.7
2014-Oct-18 18:06N 54°28' E 011°43'712.6
2014-Oct-18 17:31N 54°27' E 011°56'9 9.8
2014-Oct-18 16:33N 54°28' E 012°12'1310.5
2014-Oct-18 15:17N 54°39' E 012°23'911.3
2014-Oct-18 14:32N 54°44' E 012°36'5413.0
2014-Oct-18 10:21N 55°03' E 014°04'911.3
2014-Oct-18 09:31N 55°11' E 014°13'1211.4
2014-Oct-18 08:28N 55°20' E 014°26'1111.3
2014-Oct-18 07:30N 55°28' E 014°40'1211.4
2014-Oct-18 06:25N 55°34' E 014°59'3611.4
2014-Oct-18 03:15N 55°53' E 015°54'911.5
2014-Oct-18 02:30N 55°57' E 016°08'1111.5
2014-Oct-18 01:33N 56°02' E 016°25'32515.4
2014-Oct-17 04:31N 59°42' E 023°54'7516.9
2014-Oct-17 00:05N 60°05' E 026°17'917.0
2014-Oct-16 23:33N 60°13' E 026°24'1515.3
2014-Oct-16 22:33N 60°23' E 026°47'4 4.2
2014-Oct-16 21:32N 60°25' E 026°55'0 0.0
2014-Oct-16 20:32N 60°25' E 026°55'0 0.0
2014-Oct-16 19:32N 60°25' E 026°55'0 0.0
2014-Oct-16 18:31N 60°25' E 026°55'0 0.0
2014-Oct-16 17:31N 60°25' E 026°55'0 0.0
2014-Oct-16 16:31N 60°25' E 026°55'0 0.0
2014-Oct-16 15:31N 60°25' E 026°55'0 0.0
2014-Oct-16 14:31N 60°25' E 026°55'0 0.0
2014-Oct-16 13:31N 60°25' E 026°55'0 0.0
2014-Oct-16 12:31N 60°25' E 026°55'0 0.0
2014-Oct-16 11:31N 60°25' E 026°55'0 0.0
2014-Oct-16 10:31N 60°25' E 026°55'0 0.0
2014-Oct-16 09:31N 60°25' E 026°55'0 0.0
2014-Oct-16 08:31N 60°25' E 026°55'0 0.0
2014-Oct-16 07:31N 60°25' E 026°55'0 0.0
2014-Oct-16 06:31N 60°25' E 026°55'1 1.5
2014-Oct-16 05:33N 60°24' E 026°53'1514.8
2014-Oct-16 04:33N 60°16' E 026°28'1211.8
2014-Oct-16 03:34N 60°05' E 026°36'10915.0
2014-Oct-15 20:16N 59°54' E 030°13'0 0.0
2014-Oct-15 16:25N 59°54' E 030°14'0 0.0
2014-Oct-15 15:13N 59°53' E 030°14'0 0.0
2014-Oct-15 14:32N 59°53' E 030°14'0 0.0
2014-Oct-15 13:31N 59°53' E 030°13'0 0.0
2014-Oct-15 12:29N 59°53' E 030°13'0 0.0
2014-Oct-15 11:31N 59°53' E 030°13'1 0.2
2014-Oct-15 05:24N 59°53' E 030°12'0 0.0
2014-Oct-15 04:18N 59°53' E 030°12'0 0.0
2014-Oct-15 03:24N 59°53' E 030°12'0 0.0
2014-Oct-15 02:24N 59°53' E 030°12'0 0.0
2014-Oct-15 01:33N 59°53' E 030°12'0 0.0
2014-Oct-15 00:33N 59°53' E 030°12'0 0.0
2014-Oct-14 23:30N 59°53' E 030°12'0 0.0
2014-Oct-14 22:06N 59°53' E 030°12'0 0.0
2014-Oct-14 21:24N 59°53' E 030°12'0 0.0
2014-Oct-14 20:18N 59°53' E 030°12'0 0.0
2014-Oct-14 19:13N 59°53' E 030°12'0 0.0
2014-Oct-14 13:18N 59°53' E 030°12'0 0.0
2014-Oct-14 11:28N 59°53' E 030°12'0 0.0
2014-Oct-14 10:26N 59°53' E 030°12'  
Track history (hours):
 
Tides and Currents Weather Stations Pressure Air Temp Water Temp Dewpoint Dewpoint Depression Visibility Wind Speed Wind Dir Waves Ship Positions

Suederoog

Last reported at 2014-Oct-24 09:05 UTC. Time now 2014-Oct-24 10:24 UTC.
Position N 59°45' E 024°41'.

Length 161 m; draft 10.7 m.

Type: Ship (hazmat cat A). MMSI: 236300000.

Date/timePositionNaut miles runAvg speedWind from/ knotsBaromVisibWave heightAir tempDewpointWater temp
2014-Oct-24 09:05N 59°45' E 024°41'810.8
2014-Oct-24 08:19N 59°43' E 024°25'1310.9
2014-Oct-24 07:06N 59°39' E 024°00'610.9
2014-Oct-24 06:33N 59°37' E 023°49'1110.9
2014-Oct-24 05:33N 59°34' E 023°29'30914.5
2014-Oct-23 08:16N 55°59' E 016°33'6016.0
2014-Oct-23 04:33N 55°30' E 015°00'1616.0
2014-Oct-23 03:33N 55°22' E 014°36'1616.1
2014-Oct-23 02:34N 55°09' E 014°19'1615.6
2014-Oct-23 01:33N 54°60' E 013°58'1616.1
2014-Oct-23 00:32N 54°54' E 013°31'7123.9
2014-Oct-22 21:33N 54°28' E 011°37'1514.9
2014-Oct-22 20:33N 54°25' E 012°02'13312.1
2014-Oct-22 09:33N 56°37' E 011°42'1514.6
2014-Oct-22 08:33N 56°51' E 011°48'1615.6
2014-Oct-22 07:34N 57°06' E 011°38'1515.3
2014-Oct-22 06:34N 57°20' E 011°28'1514.8
2014-Oct-22 05:34N 57°33' E 011°13'1515.4
2014-Oct-22 04:34N 57°43' E 010°52'1515.3
2014-Oct-22 03:33N 57°47' E 010°24'16615.1
2014-Oct-21 16:33N 55°39' E 007°10'1616.1
2014-Oct-21 15:33N 55°23' E 007°05'1615.7
2014-Oct-21 14:33N 55°07' E 007°05'1615.6
2014-Oct-21 13:33N 54°52' E 007°06'3815.8
2014-Oct-21 11:10N 54°16' E 007°28'1215.9
2014-Oct-21 10:25N 54°08' E 007°43'1415.9
2014-Oct-21 09:33N 54°02' E 008°03'1313.4
2014-Oct-21 08:33N 53°59' E 008°26'1312.6
2014-Oct-21 07:33N 53°52' E 008°44'1413.6
2014-Oct-21 06:33N 53°53' E 009°07'1211.3
2014-Oct-21 05:33N 53°47' E 009°23'1414.0
2014-Oct-21 04:32N 53°35' E 009°37'1010.1
2014-Oct-21 03:33N 53°33' E 009°53'1 1.4
2014-Oct-21 02:31N 53°32' E 009°55'0 0.0
2014-Oct-21 01:29N 53°32' E 009°55'0 0.0
2014-Oct-21 00:32N 53°32' E 009°55'0 0.0
2014-Oct-20 23:32N 53°32' E 009°55'0 0.0
2014-Oct-20 22:29N 53°32' E 009°55'0 0.0
2014-Oct-20 21:31N 53°32' E 009°55'0 0.0
2014-Oct-20 20:31N 53°32' E 009°55'0 0.0
2014-Oct-20 19:33N 53°32' E 009°55'0 0.0
2014-Oct-20 18:33N 53°32' E 009°55'0 0.0
2014-Oct-20 17:32N 53°32' E 009°55'0 0.0
2014-Oct-20 16:29N 53°32' E 009°55'0 0.0
2014-Oct-20 15:33N 53°32' E 009°55'0 0.0
2014-Oct-20 14:33N 53°32' E 009°55'0 0.0
2014-Oct-20 13:34N 53°32' E 009°55'0 0.0
2014-Oct-20 12:32N 53°32' E 009°55'0 0.0
2014-Oct-20 11:33N 53°32' E 009°55'1 1.3
2014-Oct-20 10:32N 53°32' E 009°57'0 0.0
2014-Oct-20 09:32N 53°32' E 009°57'0 0.0
2014-Oct-20 08:32N 53°32' E 009°57'0 0.0
2014-Oct-20 07:32N 53°32' E 009°57'0 0.0
2014-Oct-20 06:30N 53°32' E 009°57'0 0.0
2014-Oct-20 05:33N 53°32' E 009°57'0 0.0
2014-Oct-20 04:33N 53°32' E 009°57'0 0.0
2014-Oct-20 03:33N 53°32' E 009°57'0 0.0
2014-Oct-20 02:33N 53°32' E 009°57'0 0.0
2014-Oct-20 01:33N 53°32' E 009°57'0 0.0
2014-Oct-20 00:33N 53°32' E 009°57'0 0.0
2014-Oct-19 23:33N 53°32' E 009°57'0 0.0
2014-Oct-19 22:31N 53°32' E 009°57'0 0.0
2014-Oct-19 21:33N 53°32' E 009°57'0 0.0
2014-Oct-19 20:33N 53°32' E 009°57'0 0.0
2014-Oct-19 19:32N 53°32' E 009°57'0 0.4
2014-Oct-19 18:33N 53°32' E 009°57'7 7.2
2014-Oct-19 17:33N 53°34' E 009°45'1313.4
2014-Oct-19 16:33N 53°43' E 009°28'1413.5
2014-Oct-19 15:33N 53°53' E 009°13'2 2.4
2014-Oct-19 14:33N 53°54' E 009°09'4 4.1
2014-Oct-19 13:33N 53°57' E 009°14'6 6.0
2014-Oct-19 12:31N 54°02' E 009°18'7 6.6
2014-Oct-19 11:32N 54°09' E 009°21'6 5.7
2014-Oct-19 10:28N 54°11' E 009°30'3 3.6
2014-Oct-19 09:32N 54°13' E 009°35'3 3.2
2014-Oct-19 08:31N 54°16' E 009°37'4 3.7
2014-Oct-19 07:33N 54°18' E 009°42'4 3.7
2014-Oct-19 06:33N 54°21' E 009°46'4 4.4
2014-Oct-19 05:33N 54°21' E 009°54'5 5.2
2014-Oct-19 04:33N 54°22' E 010°02'1 0.8
2014-Oct-19 03:33N 54°22' E 010°04'3 2.6
2014-Oct-19 02:30N 54°22' E 010°09'1 1.5
2014-Oct-19 01:33N 54°23' E 010°11'0 0.4
2014-Oct-19 00:33N 54°23' E 010°11'4 4.2
2014-Oct-18 23:33N 54°27' E 010°14'8 7.6
2014-Oct-18 22:33N 54°32' E 010°24'10 9.9
2014-Oct-18 21:33N 54°35' E 010°40'3710.7
2014-Oct-18 18:06N 54°28' E 011°43'712.6
2014-Oct-18 17:31N 54°27' E 011°56'9 9.8
2014-Oct-18 16:33N 54°28' E 012°12'1310.5
2014-Oct-18 15:17N 54°39' E 012°23'911.3
2014-Oct-18 14:32N 54°44' E 012°36'5413.0
2014-Oct-18 10:21N 55°03' E 014°04'911.3
2014-Oct-18 09:31N 55°11' E 014°13'1211.4
2014-Oct-18 08:28N 55°20' E 014°26'1111.3
2014-Oct-18 07:30N 55°28' E 014°40'1211.4
2014-Oct-18 06:25N 55°34' E 014°59'3611.4
2014-Oct-18 03:15N 55°53' E 015°54'911.5
2014-Oct-18 02:30N 55°57' E 016°08'1111.5
2014-Oct-18 01:33N 56°02' E 016°25'32515.4
2014-Oct-17 04:31N 59°42' E 023°54'7516.9
2014-Oct-17 00:05N 60°05' E 026°17'917.0
2014-Oct-16 23:33N 60°13' E 026°24'1515.3
2014-Oct-16 22:33N 60°23' E 026°47'4 4.2
2014-Oct-16 21:32N 60°25' E 026°55'0 0.0
2014-Oct-16 20:32N 60°25' E 026°55'0 0.0
2014-Oct-16 19:32N 60°25' E 026°55'0 0.0
2014-Oct-16 18:31N 60°25' E 026°55'0 0.0
2014-Oct-16 17:31N 60°25' E 026°55'0 0.0
2014-Oct-16 16:31N 60°25' E 026°55'0 0.0
2014-Oct-16 15:31N 60°25' E 026°55'0 0.0
2014-Oct-16 14:31N 60°25' E 026°55'0 0.0
2014-Oct-16 13:31N 60°25' E 026°55'0 0.0
2014-Oct-16 12:31N 60°25' E 026°55'0 0.0
2014-Oct-16 11:31N 60°25' E 026°55'0 0.0
2014-Oct-16 10:31N 60°25' E 026°55'0 0.0
2014-Oct-16 09:31N 60°25' E 026°55'0 0.0
2014-Oct-16 08:31N 60°25' E 026°55'0 0.0
2014-Oct-16 07:31N 60°25' E 026°55'0 0.0
2014-Oct-16 06:31N 60°25' E 026°55'1 1.5
2014-Oct-16 05:33N 60°24' E 026°53'1514.8
2014-Oct-16 04:33N 60°16' E 026°28'1211.8
2014-Oct-16 03:34N 60°05' E 026°36'10915.0
2014-Oct-15 20:16N 59°54' E 030°13'0 0.0
2014-Oct-15 16:25N 59°54' E 030°14'0 0.0
2014-Oct-15 15:13N 59°53' E 030°14'0 0.0
2014-Oct-15 14:32N 59°53' E 030°14'0 0.0
2014-Oct-15 13:31N 59°53' E 030°13'0 0.0
2014-Oct-15 12:29N 59°53' E 030°13'0 0.0
2014-Oct-15 11:31N 59°53' E 030°13'1 0.2
2014-Oct-15 05:24N 59°53' E 030°12'0 0.0
2014-Oct-15 04:18N 59°53' E 030°12'0 0.0
2014-Oct-15 03:24N 59°53' E 030°12'0 0.0
2014-Oct-15 02:24N 59°53' E 030°12'0 0.0
2014-Oct-15 01:33N 59°53' E 030°12'0 0.0
2014-Oct-15 00:33N 59°53' E 030°12'0 0.0
2014-Oct-14 23:30N 59°53' E 030°12'0 0.0
2014-Oct-14 22:06N 59°53' E 030°12'0 0.0
2014-Oct-14 21:24N 59°53' E 030°12'0 0.0
2014-Oct-14 20:18N 59°53' E 030°12'0 0.0
2014-Oct-14 19:13N 59°53' E 030°12'0 0.0
2014-Oct-14 13:18N 59°53' E 030°12'0 0.0
2014-Oct-14 11:28N 59°53' E 030°12'0 0.0
2014-Oct-14 10:26N 59°53' E 030°12'  

Dump ship's entire track history